Rechercher aéroport 
image banner adimage banner ad
image banner ad

LI-SS01 - Il volo

Situé à Pozzomaggiore, Italy

ICAO - , IATA -

Données fournies par Airmate  

Information générale

Coordonnées: N40°25'16" E8°41'10"
Élévation : 1253 feet MSL.
 
Voir autres Aéroports à Sardinia

Données opérationnelles

Accessible au public
Heure actuelle UTC:
Heure actuelle locale:
Météo à : LIEA - Alghero/Fertilia ( 41 km )
METAR: LIEA 261220Z 30020G30KT 260V330 9999 FEW038 19/08 Q1008
TAF: TAF LIEA 261100Z 2612/2712 28020KT 9999 SCT030 TEMPO 2612/2618 30020G32KT TEMPO 2700/2706 TSRA
Voir NOTAMs / SUP AIP / TFR affectant cet aéroport [VIEW]
Fréquences de communication: [VIEW]

Pistes:

Identifiant RWYQFULongueur (ft)Largeur (ft)SurfaceLDA (ft)
061640131GRASS
241640131GRASS

Coordonnées de l'aéroport

Adresse: Pozzomaggiore Italy

Vue satellite de LI-SS01